sensor_id;sensor_type;location;lat;lon;timestamp;P1;durP1;ratioP1;P2;durP2;ratioP2
66169;SDS011;52971;44.024;20.456;2022-07-12T00:00:44;4.22;;;0.50;;
66169;SDS011;52971;44.024;20.456;2022-07-12T00:03:10;2.25;;;0.60;;
66169;SDS011;52971;44.024;20.456;2022-07-12T00:05:35;3.22;;;0.47;;
66169;SDS011;52971;44.024;20.456;2022-07-12T00:08:01;3.60;;;0.38;;
66169;SDS011;52971;44.024;20.456;2022-07-12T00:10:26;2.67;;;0.50;;
66169;SDS011;52971;44.024;20.456;2022-07-12T00:12:52;4.28;;;0.40;;
66169;SDS011;52971;44.024;20.456;2022-07-12T00:15:19;3.20;;;0.40;;
66169;SDS011;52971;44.024;20.456;2022-07-12T00:17:45;2.28;;;0.45;;
66169;SDS011;52971;44.024;20.456;2022-07-12T00:20:11;3.92;;;0.32;;
66169;SDS011;52971;44.024;20.456;2022-07-12T00:22:36;1.13;;;0.32;;
66169;SDS011;52971;44.024;20.456;2022-07-12T00:25:02;1.92;;;0.28;;
66169;SDS011;52971;44.024;20.456;2022-07-12T00:27:28;1.90;;;0.47;;
66169;SDS011;52971;44.024;20.456;2022-07-12T00:29:54;2.60;;;0.50;;
66169;SDS011;52971;44.024;20.456;2022-07-12T00:32:19;1.67;;;0.40;;
66169;SDS011;52971;44.024;20.456;2022-07-12T00:34:45;1.52;;;0.30;;
66169;SDS011;52971;44.024;20.456;2022-07-12T00:37:10;2.80;;;0.40;;
66169;SDS011;52971;44.024;20.456;2022-07-12T00:39:35;1.52;;;0.38;;
66169;SDS011;52971;44.024;20.456;2022-07-12T00:42:01;3.40;;;0.50;;
66169;SDS011;52971;44.024;20.456;2022-07-12T00:44:27;2.38;;;0.35;;
66169;SDS011;52971;44.024;20.456;2022-07-12T00:46:52;3.00;;;0.38;;
66169;SDS011;52971;44.024;20.456;2022-07-12T00:49:18;2.60;;;0.40;;
66169;SDS011;52971;44.024;20.456;2022-07-12T00:51:44;3.97;;;0.40;;
66169;SDS011;52971;44.024;20.456;2022-07-12T00:54:09;2.42;;;0.60;;
66169;SDS011;52971;44.024;20.456;2022-07-12T00:56:35;2.10;;;0.90;;
66169;SDS011;52971;44.024;20.456;2022-07-12T00:59:01;1.77;;;0.93;;
66169;SDS011;52971;44.024;20.456;2022-07-12T01:01:27;5.32;;;0.50;;
66169;SDS011;52971;44.024;20.456;2022-07-12T01:03:53;1.50;;;0.30;;
66169;SDS011;52971;44.024;20.456;2022-07-12T01:06:19;5.47;;;0.98;;
66169;SDS011;52971;44.024;20.456;2022-07-12T01:08:45;1.88;;;0.77;;
66169;SDS011;52971;44.024;20.456;2022-07-12T01:11:11;2.60;;;0.60;;
66169;SDS011;52971;44.024;20.456;2022-07-12T01:13:37;2.45;;;0.40;;
66169;SDS011;52971;44.024;20.456;2022-07-12T01:16:04;5.65;;;0.70;;
66169;SDS011;52971;44.024;20.456;2022-07-12T01:18:31;1.65;;;0.45;;
66169;SDS011;52971;44.024;20.456;2022-07-12T01:20:58;2.53;;;0.50;;
66169;SDS011;52971;44.024;20.456;2022-07-12T01:23:28;3.42;;;0.50;;
66169;SDS011;52971;44.024;20.456;2022-07-12T01:25:53;2.58;;;0.90;;
66169;SDS011;52971;44.024;20.456;2022-07-12T01:28:19;3.35;;;0.70;;
66169;SDS011;52971;44.024;20.456;2022-07-12T01:30:46;2.53;;;0.70;;
66169;SDS011;52971;44.024;20.456;2022-07-12T01:33:12;2.92;;;0.98;;
66169;SDS011;52971;44.024;20.456;2022-07-12T01:35:39;3.63;;;0.30;;
66169;SDS011;52971;44.024;20.456;2022-07-12T01:38:04;2.35;;;0.43;;
66169;SDS011;52971;44.024;20.456;2022-07-12T01:40:31;2.67;;;0.30;;
66169;SDS011;52971;44.024;20.456;2022-07-12T01:42:56;2.95;;;0.35;;
66169;SDS011;52971;44.024;20.456;2022-07-12T01:45:22;1.77;;;0.40;;
66169;SDS011;52971;44.024;20.456;2022-07-12T01:47:47;0.98;;;0.30;;
66169;SDS011;52971;44.024;20.456;2022-07-12T01:50:14;2.55;;;0.40;;
66169;SDS011;52971;44.024;20.456;2022-07-12T01:52:40;3.20;;;0.45;;
66169;SDS011;52971;44.024;20.456;2022-07-12T01:55:07;1.65;;;0.40;;
66169;SDS011;52971;44.024;20.456;2022-07-12T01:57:33;3.17;;;0.35;;
66169;SDS011;52971;44.024;20.456;2022-07-12T02:00:03;1.25;;;0.40;;
66169;SDS011;52971;44.024;20.456;2022-07-12T02:02:30;1.13;;;0.30;;
66169;SDS011;52971;44.024;20.456;2022-07-12T02:04:57;2.28;;;0.50;;
66169;SDS011;52971;44.024;20.456;2022-07-12T02:07:23;1.67;;;0.50;;
66169;SDS011;52971;44.024;20.456;2022-07-12T02:09:50;3.83;;;0.32;;
66169;SDS011;52971;44.024;20.456;2022-07-12T02:12:15;3.20;;;0.30;;
66169;SDS011;52971;44.024;20.456;2022-07-12T02:14:41;2.42;;;0.40;;
66169;SDS011;52971;44.024;20.456;2022-07-12T02:17:06;4.43;;;0.55;;
66169;SDS011;52971;44.024;20.456;2022-07-12T02:19:31;2.38;;;0.45;;
66169;SDS011;52971;44.024;20.456;2022-07-12T02:21:57;2.38;;;0.57;;
66169;SDS011;52971;44.024;20.456;2022-07-12T02:24:22;3.10;;;0.40;;
66169;SDS011;52971;44.024;20.456;2022-07-12T02:26:48;1.02;;;0.38;;
66169;SDS011;52971;44.024;20.456;2022-07-12T02:29:13;2.65;;;0.30;;
66169;SDS011;52971;44.024;20.456;2022-07-12T02:31:39;1.67;;;0.38;;
66169;SDS011;52971;44.024;20.456;2022-07-12T02:34:05;2.13;;;0.30;;
66169;SDS011;52971;44.024;20.456;2022-07-12T02:36:30;0.90;;;0.30;;
66169;SDS011;52971;44.024;20.456;2022-07-12T02:38:56;1.48;;;0.32;;
66169;SDS011;52971;44.024;20.456;2022-07-12T02:41:23;2.25;;;0.50;;
66169;SDS011;52971;44.024;20.456;2022-07-12T02:43:50;0.93;;;0.40;;
66169;SDS011;52971;44.024;20.456;2022-07-12T02:46:15;1.60;;;0.30;;
66169;SDS011;52971;44.024;20.456;2022-07-12T02:48:41;1.38;;;0.30;;
66169;SDS011;52971;44.024;20.456;2022-07-12T02:51:07;2.63;;;0.50;;
66169;SDS011;52971;44.024;20.456;2022-07-12T02:53:33;2.63;;;0.40;;
66169;SDS011;52971;44.024;20.456;2022-07-12T02:55:59;1.90;;;0.52;;
66169;SDS011;52971;44.024;20.456;2022-07-12T02:58:26;2.50;;;0.40;;
66169;SDS011;52971;44.024;20.456;2022-07-12T03:00:51;1.73;;;0.60;;
66169;SDS011;52971;44.024;20.456;2022-07-12T03:03:17;2.38;;;0.70;;
66169;SDS011;52971;44.024;20.456;2022-07-12T03:05:43;1.00;;;0.45;;
66169;SDS011;52971;44.024;20.456;2022-07-12T03:08:09;3.03;;;0.70;;
66169;SDS011;52971;44.024;20.456;2022-07-12T03:10:35;5.47;;;0.70;;
66169;SDS011;52971;44.024;20.456;2022-07-12T03:13:01;3.90;;;0.60;;
66169;SDS011;52971;44.024;20.456;2022-07-12T03:15:28;3.38;;;0.40;;
66169;SDS011;52971;44.024;20.456;2022-07-12T03:17:54;1.63;;;0.40;;
66169;SDS011;52971;44.024;20.456;2022-07-12T03:20:20;3.53;;;0.82;;
66169;SDS011;52971;44.024;20.456;2022-07-12T03:22:47;1.65;;;0.50;;
66169;SDS011;52971;44.024;20.456;2022-07-12T03:25:14;3.72;;;0.60;;
66169;SDS011;52971;44.024;20.456;2022-07-12T03:27:40;3.78;;;0.40;;
66169;SDS011;52971;44.024;20.456;2022-07-12T03:30:06;3.30;;;0.65;;
66169;SDS011;52971;44.024;20.456;2022-07-12T03:32:32;2.00;;;0.40;;
66169;SDS011;52971;44.024;20.456;2022-07-12T03:34:58;1.80;;;0.43;;
66169;SDS011;52971;44.024;20.456;2022-07-12T03:37:23;2.08;;;0.52;;
66169;SDS011;52971;44.024;20.456;2022-07-12T03:39:49;2.22;;;0.40;;
66169;SDS011;52971;44.024;20.456;2022-07-12T03:42:14;3.10;;;0.85;;
66169;SDS011;52971;44.024;20.456;2022-07-12T03:44:40;2.70;;;0.70;;
66169;SDS011;52971;44.024;20.456;2022-07-12T03:47:05;2.65;;;0.82;;
66169;SDS011;52971;44.024;20.456;2022-07-12T03:49:31;4.25;;;0.40;;
66169;SDS011;52971;44.024;20.456;2022-07-12T03:51:56;1.35;;;0.50;;
66169;SDS011;52971;44.024;20.456;2022-07-12T03:54:22;1.48;;;0.60;;
66169;SDS011;52971;44.024;20.456;2022-07-12T03:56:47;2.38;;;0.60;;
66169;SDS011;52971;44.024;20.456;2022-07-12T03:59:32;3.00;;;0.50;;
66169;SDS011;52971;44.024;20.456;2022-07-12T04:01:57;3.60;;;0.40;;
66169;SDS011;52971;44.024;20.456;2022-07-12T04:04:24;2.72;;;1.13;;
66169;SDS011;52971;44.024;20.456;2022-07-12T04:06:50;6.40;;;1.88;;
66169;SDS011;52971;44.024;20.456;2022-07-12T04:09:16;6.60;;;1.52;;
66169;SDS011;52971;44.024;20.456;2022-07-12T04:11:41;4.53;;;1.25;;
66169;SDS011;52971;44.024;20.456;2022-07-12T04:14:07;1.88;;;1.05;;
66169;SDS011;52971;44.024;20.456;2022-07-12T04:16:32;6.10;;;1.45;;
66169;SDS011;52971;44.024;20.456;2022-07-12T04:18:58;4.60;;;1.60;;
66169;SDS011;52971;44.024;20.456;2022-07-12T04:21:24;5.15;;;1.08;;
66169;SDS011;52971;44.024;20.456;2022-07-12T04:23:49;5.05;;;1.65;;
66169;SDS011;52971;44.024;20.456;2022-07-12T04:26:15;4.80;;;1.17;;
66169;SDS011;52971;44.024;20.456;2022-07-12T04:28:40;4.10;;;1.42;;
66169;SDS011;52971;44.024;20.456;2022-07-12T04:31:06;6.43;;;1.52;;
66169;SDS011;52971;44.024;20.456;2022-07-12T04:33:32;2.80;;;1.25;;
66169;SDS011;52971;44.024;20.456;2022-07-12T04:35:58;3.47;;;1.33;;
66169;SDS011;52971;44.024;20.456;2022-07-12T04:38:23;2.38;;;0.73;;
66169;SDS011;52971;44.024;20.456;2022-07-12T04:40:49;2.25;;;1.02;;
66169;SDS011;52971;44.024;20.456;2022-07-12T04:43:14;6.20;;;1.52;;
66169;SDS011;52971;44.024;20.456;2022-07-12T04:45:40;3.25;;;1.50;;
66169;SDS011;52971;44.024;20.456;2022-07-12T04:48:09;5.72;;;0.95;;
66169;SDS011;52971;44.024;20.456;2022-07-12T04:50:35;5.85;;;0.98;;
66169;SDS011;52971;44.024;20.456;2022-07-12T04:53:01;5.32;;;0.75;;
66169;SDS011;52971;44.024;20.456;2022-07-12T04:55:26;2.85;;;0.70;;
66169;SDS011;52971;44.024;20.456;2022-07-12T04:57:52;1.80;;;0.45;;
66169;SDS011;52971;44.024;20.456;2022-07-12T05:00:17;2.65;;;0.60;;
66169;SDS011;52971;44.024;20.456;2022-07-12T05:02:43;3.22;;;0.70;;
66169;SDS011;52971;44.024;20.456;2022-07-12T05:05:08;1.30;;;0.40;;
66169;SDS011;52971;44.024;20.456;2022-07-12T05:07:34;4.10;;;0.70;;
66169;SDS011;52971;44.024;20.456;2022-07-12T05:09:59;3.10;;;0.80;;
66169;SDS011;52971;44.024;20.456;2022-07-12T05:12:24;3.08;;;1.08;;
66169;SDS011;52971;44.024;20.456;2022-07-12T05:14:50;4.10;;;0.63;;
66169;SDS011;52971;44.024;20.456;2022-07-12T05:17:15;5.85;;;0.82;;
66169;SDS011;52971;44.024;20.456;2022-07-12T05:19:41;7.38;;;0.88;;
66169;SDS011;52971;44.024;20.456;2022-07-12T05:22:06;4.32;;;1.10;;
66169;SDS011;52971;44.024;20.456;2022-07-12T05:24:32;2.72;;;0.65;;
66169;SDS011;52971;44.024;20.456;2022-07-12T05:26:57;3.38;;;0.85;;
66169;SDS011;52971;44.024;20.456;2022-07-12T05:29:23;2.60;;;0.90;;
66169;SDS011;52971;44.024;20.456;2022-07-12T05:31:48;3.80;;;0.98;;
66169;SDS011;52971;44.024;20.456;2022-07-12T05:34:14;5.88;;;1.73;;
66169;SDS011;52971;44.024;20.456;2022-07-12T05:36:40;4.70;;;0.98;;
66169;SDS011;52971;44.024;20.456;2022-07-12T05:39:06;2.72;;;0.82;;
66169;SDS011;52971;44.024;20.456;2022-07-12T05:41:31;4.03;;;0.88;;
66169;SDS011;52971;44.024;20.456;2022-07-12T05:43:57;4.18;;;0.80;;
66169;SDS011;52971;44.024;20.456;2022-07-12T05:46:22;4.47;;;0.90;;
66169;SDS011;52971;44.024;20.456;2022-07-12T05:48:48;3.70;;;0.80;;
66169;SDS011;52971;44.024;20.456;2022-07-12T05:51:13;7.43;;;1.52;;
66169;SDS011;52971;44.024;20.456;2022-07-12T05:53:58;4.68;;;1.30;;
66169;SDS011;52971;44.024;20.456;2022-07-12T05:56:23;4.10;;;1.33;;
66169;SDS011;52971;44.024;20.456;2022-07-12T05:58:49;4.57;;;1.40;;
66169;SDS011;52971;44.024;20.456;2022-07-12T06:01:15;3.70;;;0.95;;
66169;SDS011;52971;44.024;20.456;2022-07-12T06:03:42;6.25;;;1.45;;
66169;SDS011;52971;44.024;20.456;2022-07-12T06:06:07;3.70;;;1.15;;
66169;SDS011;52971;44.024;20.456;2022-07-12T06:08:32;6.78;;;1.05;;
66169;SDS011;52971;44.024;20.456;2022-07-12T06:10:58;2.85;;;0.77;;
66169;SDS011;52971;44.024;20.456;2022-07-12T06:13:23;7.38;;;1.55;;
66169;SDS011;52971;44.024;20.456;2022-07-12T06:15:49;5.00;;;1.05;;
66169;SDS011;52971;44.024;20.456;2022-07-12T06:18:15;2.97;;;1.10;;
66169;SDS011;52971;44.024;20.456;2022-07-12T06:20:40;6.38;;;1.08;;
66169;SDS011;52971;44.024;20.456;2022-07-12T06:23:05;5.93;;;0.93;;
66169;SDS011;52971;44.024;20.456;2022-07-12T06:25:31;7.70;;;1.40;;
66169;SDS011;52971;44.024;20.456;2022-07-12T06:27:59;4.40;;;0.90;;
66169;SDS011;52971;44.024;20.456;2022-07-12T06:30:29;10.32;;;1.20;;
66169;SDS011;52971;44.024;20.456;2022-07-12T06:32:54;8.85;;;1.33;;
66169;SDS011;52971;44.024;20.456;2022-07-12T06:35:20;10.55;;;1.17;;
66169;SDS011;52971;44.024;20.456;2022-07-12T06:37:45;9.55;;;0.85;;
66169;SDS011;52971;44.024;20.456;2022-07-12T06:40:11;7.25;;;0.98;;
66169;SDS011;52971;44.024;20.456;2022-07-12T06:42:37;5.78;;;0.50;;
66169;SDS011;52971;44.024;20.456;2022-07-12T06:45:03;7.57;;;0.90;;
66169;SDS011;52971;44.024;20.456;2022-07-12T06:47:29;5.95;;;0.73;;
66169;SDS011;52971;44.024;20.456;2022-07-12T06:49:54;5.43;;;0.50;;
66169;SDS011;52971;44.024;20.456;2022-07-12T06:52:20;1.95;;;0.30;;
66169;SDS011;52971;44.024;20.456;2022-07-12T06:54:45;2.60;;;0.80;;
66169;SDS011;52971;44.024;20.456;2022-07-12T06:57:11;1.80;;;0.30;;
66169;SDS011;52971;44.024;20.456;2022-07-12T06:59:36;3.58;;;0.20;;
66169;SDS011;52971;44.024;20.456;2022-07-12T07:02:02;2.08;;;0.20;;
66169;SDS011;52971;44.024;20.456;2022-07-12T07:04:28;1.08;;;0.20;;
66169;SDS011;52971;44.024;20.456;2022-07-12T07:06:53;1.77;;;0.20;;
66169;SDS011;52971;44.024;20.456;2022-07-12T07:09:19;1.92;;;0.20;;
66169;SDS011;52971;44.024;20.456;2022-07-12T07:11:44;2.63;;;0.20;;
66169;SDS011;52971;44.024;20.456;2022-07-12T07:14:10;4.80;;;0.17;;
66169;SDS011;52971;44.024;20.456;2022-07-12T07:16:36;4.22;;;0.22;;
66169;SDS011;52971;44.024;20.456;2022-07-12T07:19:01;1.67;;;0.35;;
66169;SDS011;52971;44.024;20.456;2022-07-12T07:21:27;2.83;;;0.20;;
66169;SDS011;52971;44.024;20.456;2022-07-12T07:23:53;1.88;;;0.30;;
66169;SDS011;52971;44.024;20.456;2022-07-12T07:26:18;0.88;;;0.20;;
66169;SDS011;52971;44.024;20.456;2022-07-12T07:28:44;2.28;;;0.20;;
66169;SDS011;52971;44.024;20.456;2022-07-12T07:31:28;5.57;;;0.30;;
66169;SDS011;52971;44.024;20.456;2022-07-12T07:33:54;1.23;;;0.25;;
66169;SDS011;52971;44.024;20.456;2022-07-12T07:36:19;2.40;;;0.10;;
66169;SDS011;52971;44.024;20.456;2022-07-12T07:38:45;2.58;;;0.10;;
66169;SDS011;52971;44.024;20.456;2022-07-12T07:41:10;2.20;;;0.20;;
66169;SDS011;52971;44.024;20.456;2022-07-12T07:43:36;0.93;;;0.10;;
66169;SDS011;52971;44.024;20.456;2022-07-12T07:46:01;1.50;;;0.10;;
66169;SDS011;52971;44.024;20.456;2022-07-12T07:48:30;5.57;;;0.20;;
66169;SDS011;52971;44.024;20.456;2022-07-12T07:50:55;3.17;;;0.20;;
66169;SDS011;52971;44.024;20.456;2022-07-12T07:53:21;2.88;;;0.22;;
66169;SDS011;52971;44.024;20.456;2022-07-12T07:55:48;1.75;;;0.20;;
66169;SDS011;52971;44.024;20.456;2022-07-12T07:58:14;2.65;;;0.25;;
66169;SDS011;52971;44.024;20.456;2022-07-12T08:00:41;4.10;;;0.20;;
66169;SDS011;52971;44.024;20.456;2022-07-12T08:03:06;1.88;;;0.30;;
66169;SDS011;52971;44.024;20.456;2022-07-12T08:05:31;1.13;;;0.10;;
66169;SDS011;52971;44.024;20.456;2022-07-12T08:07:57;1.40;;;0.20;;
66169;SDS011;52971;44.024;20.456;2022-07-12T08:10:23;0.73;;;0.10;;
66169;SDS011;52971;44.024;20.456;2022-07-12T08:12:48;1.25;;;0.20;;
66169;SDS011;52971;44.024;20.456;2022-07-12T08:15:14;6.65;;;0.38;;
66169;SDS011;52971;44.024;20.456;2022-07-12T08:17:39;2.50;;;0.20;;
66169;SDS011;52971;44.024;20.456;2022-07-12T08:20:05;1.77;;;0.20;;
66169;SDS011;52971;44.024;20.456;2022-07-12T08:22:31;0.65;;;0.10;;
66169;SDS011;52971;44.024;20.456;2022-07-12T08:24:57;1.83;;;0.10;;
66169;SDS011;52971;44.024;20.456;2022-07-12T08:27:22;5.55;;;0.32;;
66169;SDS011;52971;44.024;20.456;2022-07-12T08:29:48;0.93;;;0.10;;
66169;SDS011;52971;44.024;20.456;2022-07-12T08:32:14;3.67;;;0.10;;
66169;SDS011;52971;44.024;20.456;2022-07-12T08:34:40;2.97;;;0.20;;
66169;SDS011;52971;44.024;20.456;2022-07-12T08:37:06;1.88;;;0.20;;
66169;SDS011;52971;44.024;20.456;2022-07-12T08:39:32;2.63;;;0.20;;
66169;SDS011;52971;44.024;20.456;2022-07-12T08:41:57;1.00;;;0.10;;
66169;SDS011;52971;44.024;20.456;2022-07-12T08:44:23;3.92;;;0.20;;
66169;SDS011;52971;44.024;20.456;2022-07-12T08:46:48;2.30;;;0.10;;
66169;SDS011;52971;44.024;20.456;2022-07-12T08:49:14;6.70;;;0.20;;
66169;SDS011;52971;44.024;20.456;2022-07-12T08:51:39;1.67;;;0.15;;
66169;SDS011;52971;44.024;20.456;2022-07-12T08:54:08;1.90;;;0.10;;
66169;SDS011;52971;44.024;20.456;2022-07-12T08:56:39;1.90;;;0.20;;
66169;SDS011;52971;44.024;20.456;2022-07-12T08:59:09;2.40;;;0.20;;
66169;SDS011;52971;44.024;20.456;2022-07-12T09:01:39;1.30;;;0.20;;
66169;SDS011;52971;44.024;20.456;2022-07-12T09:04:25;1.92;;;0.17;;
66169;SDS011;52971;44.024;20.456;2022-07-12T09:06:55;4.22;;;0.20;;
66169;SDS011;52971;44.024;20.456;2022-07-12T09:09:33;2.60;;;0.20;;
66169;SDS011;52971;44.024;20.456;2022-07-12T09:12:02;2.22;;;0.10;;
66169;SDS011;52971;44.024;20.456;2022-07-12T09:14:28;2.63;;;0.30;;
66169;SDS011;52971;44.024;20.456;2022-07-12T09:17:03;2.42;;;0.20;;
66169;SDS011;52971;44.024;20.456;2022-07-12T09:19:38;2.78;;;0.20;;
66169;SDS011;52971;44.024;20.456;2022-07-12T09:22:04;2.97;;;0.15;;
66169;SDS011;52971;44.024;20.456;2022-07-12T09:24:38;1.85;;;0.22;;
66169;SDS011;52971;44.024;20.456;2022-07-12T09:27:03;1.60;;;0.10;;
66169;SDS011;52971;44.024;20.456;2022-07-12T09:29:29;9.82;;;0.22;;
66169;SDS011;52971;44.024;20.456;2022-07-12T09:31:56;1.02;;;0.20;;
66169;SDS011;52971;44.024;20.456;2022-07-12T09:37:25;1.45;;;0.17;;
66169;SDS011;52971;44.024;20.456;2022-07-12T09:39:52;1.40;;;0.22;;
66169;SDS011;52971;44.024;20.456;2022-07-12T09:42:21;2.15;;;0.10;;
66169;SDS011;52971;44.024;20.456;2022-07-12T09:44:47;0.63;;;0.20;;
66169;SDS011;52971;44.024;20.456;2022-07-12T09:47:13;2.15;;;0.30;;
66169;SDS011;52971;44.024;20.456;2022-07-12T09:49:43;2.85;;;0.22;;
66169;SDS011;52971;44.024;20.456;2022-07-12T09:52:11;3.00;;;0.40;;
66169;SDS011;52971;44.024;20.456;2022-07-12T09:54:44;1.75;;;0.10;;
66169;SDS011;52971;44.024;20.456;2022-07-12T09:57:20;3.95;;;0.57;;
66169;SDS011;52971;44.024;20.456;2022-07-12T09:59:53;2.72;;;0.20;;
66169;SDS011;52971;44.024;20.456;2022-07-12T10:02:20;3.20;;;0.43;;
66169;SDS011;52971;44.024;20.456;2022-07-12T10:04:47;3.65;;;0.13;;
66169;SDS011;52971;44.024;20.456;2022-07-12T10:07:13;0.35;;;0.10;;
66169;SDS011;52971;44.024;20.456;2022-07-12T10:09:41;3.30;;;0.10;;
66169;SDS011;52971;44.024;20.456;2022-07-12T10:12:09;1.58;;;0.10;;
66169;SDS011;52971;44.024;20.456;2022-07-12T10:14:36;4.57;;;0.20;;
66169;SDS011;52971;44.024;20.456;2022-07-12T10:17:03;2.15;;;0.20;;
66169;SDS011;52971;44.024;20.456;2022-07-12T10:19:34;2.88;;;0.47;;
66169;SDS011;52971;44.024;20.456;2022-07-12T10:22:02;1.25;;;0.20;;
66169;SDS011;52971;44.024;20.456;2022-07-12T10:27:26;0.80;;;0.03;;
66169;SDS011;52971;44.024;20.456;2022-07-12T10:29:44;1.33;;;0.10;;
66169;SDS011;52971;44.024;20.456;2022-07-12T10:32:20;0.82;;;0.10;;
66169;SDS011;52971;44.024;20.456;2022-07-12T10:34:59;2.22;;;0.20;;
66169;SDS011;52971;44.024;20.456;2022-07-12T10:37:26;1.35;;;0.20;;
66169;SDS011;52971;44.024;20.456;2022-07-12T10:40:12;2.25;;;0.20;;
66169;SDS011;52971;44.024;20.456;2022-07-12T10:47:54;9.48;;;0.28;;
66169;SDS011;52971;44.024;20.456;2022-07-12T10:58:33;1.58;;;0.10;;
66169;SDS011;52971;44.024;20.456;2022-07-12T11:01:03;1.42;;;0.20;;
66169;SDS011;52971;44.024;20.456;2022-07-12T11:03:30;1.00;;;0.10;;
66169;SDS011;52971;44.024;20.456;2022-07-12T11:06:01;1.08;;;0.10;;
66169;SDS011;52971;44.024;20.456;2022-07-12T11:08:28;0.75;;;0.10;;
66169;SDS011;52971;44.024;20.456;2022-07-12T11:10:58;2.15;;;0.30;;
66169;SDS011;52971;44.024;20.456;2022-07-12T11:13:24;0.85;;;0.20;;
66169;SDS011;52971;44.024;20.456;2022-07-12T11:15:57;1.58;;;0.10;;
66169;SDS011;52971;44.024;20.456;2022-07-12T11:20:59;1.33;;;0.17;;
66169;SDS011;52971;44.024;20.456;2022-07-12T11:23:25;1.52;;;0.10;;
66169;SDS011;52971;44.024;20.456;2022-07-12T11:25:55;0.75;;;0.10;;
66169;SDS011;52971;44.024;20.456;2022-07-12T11:28:21;2.85;;;0.17;;
66169;SDS011;52971;44.024;20.456;2022-07-12T11:30:49;4.45;;;0.20;;
66169;SDS011;52971;44.024;20.456;2022-07-12T11:33:18;5.63;;;0.40;;
66169;SDS011;52971;44.024;20.456;2022-07-12T11:35:44;0.55;;;0.10;;
66169;SDS011;52971;44.024;20.456;2022-07-12T11:38:10;1.35;;;0.10;;
66169;SDS011;52971;44.024;20.456;2022-07-12T11:40:36;0.95;;;0.10;;
66169;SDS011;52971;44.024;20.456;2022-07-12T11:43:02;2.03;;;0.10;;
66169;SDS011;52971;44.024;20.456;2022-07-12T11:45:30;1.40;;;0.10;;
66169;SDS011;52971;44.024;20.456;2022-07-12T11:47:58;3.97;;;0.20;;
66169;SDS011;52971;44.024;20.456;2022-07-12T11:50:25;1.90;;;0.10;;
66169;SDS011;52971;44.024;20.456;2022-07-12T11:52:50;0.68;;;0.10;;
66169;SDS011;52971;44.024;20.456;2022-07-12T11:55:16;3.92;;;0.17;;
66169;SDS011;52971;44.024;20.456;2022-07-12T11:57:42;3.50;;;0.20;;
66169;SDS011;52971;44.024;20.456;2022-07-12T12:00:14;1.08;;;0.10;;
66169;SDS011;52971;44.024;20.456;2022-07-12T12:02:41;4.30;;;0.65;;
66169;SDS011;52971;44.024;20.456;2022-07-12T12:05:07;4.07;;;0.13;;
66169;SDS011;52971;44.024;20.456;2022-07-12T12:07:33;1.65;;;0.10;;
66169;SDS011;52971;44.024;20.456;2022-07-12T12:12:47;1.50;;;0.20;;
66169;SDS011;52971;44.024;20.456;2022-07-12T12:15:19;1.83;;;0.32;;
66169;SDS011;52971;44.024;20.456;2022-07-12T12:20:16;3.20;;;0.20;;
66169;SDS011;52971;44.024;20.456;2022-07-12T12:22:46;3.28;;;0.10;;
66169;SDS011;52971;44.024;20.456;2022-07-12T12:25:13;8.82;;;0.38;;
66169;SDS011;52971;44.024;20.456;2022-07-12T12:27:43;1.33;;;0.13;;
66169;SDS011;52971;44.024;20.456;2022-07-12T12:30:14;2.15;;;0.10;;
66169;SDS011;52971;44.024;20.456;2022-07-12T12:32:50;2.55;;;0.10;;
66169;SDS011;52971;44.024;20.456;2022-07-12T12:35:18;1.42;;;0.30;;
66169;SDS011;52971;44.024;20.456;2022-07-12T12:37:52;3.50;;;0.10;;
66169;SDS011;52971;44.024;20.456;2022-07-12T12:40:20;1.15;;;0.17;;
66169;SDS011;52971;44.024;20.456;2022-07-12T12:42:47;0.77;;;0.10;;
66169;SDS011;52971;44.024;20.456;2022-07-12T12:45:23;1.60;;;0.10;;
66169;SDS011;52971;44.024;20.456;2022-07-12T12:47:53;0.95;;;0.20;;
66169;SDS011;52971;44.024;20.456;2022-07-12T12:51:26;0.77;;;0.10;;
66169;SDS011;52971;44.024;20.456;2022-07-12T12:53:31;1.83;;;0.15;;
66169;SDS011;52971;44.024;20.456;2022-07-12T12:55:57;0.98;;;0.10;;
66169;SDS011;52971;44.024;20.456;2022-07-12T12:58:23;2.78;;;0.20;;
66169;SDS011;52971;44.024;20.456;2022-07-12T13:00:50;1.35;;;0.20;;
66169;SDS011;52971;44.024;20.456;2022-07-12T13:03:17;1.48;;;0.20;;
66169;SDS011;52971;44.024;20.456;2022-07-12T13:05:44;3.80;;;0.10;;
66169;SDS011;52971;44.024;20.456;2022-07-12T13:08:10;1.20;;;0.17;;
66169;SDS011;52971;44.024;20.456;2022-07-12T13:10:38;0.85;;;0.10;;
66169;SDS011;52971;44.024;20.456;2022-07-12T13:13:05;0.50;;;0.10;;
66169;SDS011;52971;44.024;20.456;2022-07-12T13:15:32;2.30;;;0.10;;
66169;SDS011;52971;44.024;20.456;2022-07-12T13:17:58;1.17;;;0.10;;
66169;SDS011;52971;44.024;20.456;2022-07-12T13:20:25;2.05;;;0.20;;
66169;SDS011;52971;44.024;20.456;2022-07-12T13:22:54;1.15;;;0.10;;
66169;SDS011;52971;44.024;20.456;2022-07-12T13:25:20;1.80;;;0.10;;
66169;SDS011;52971;44.024;20.456;2022-07-12T13:27:46;1.65;;;0.30;;
66169;SDS011;52971;44.024;20.456;2022-07-12T13:30:13;1.33;;;0.10;;
66169;SDS011;52971;44.024;20.456;2022-07-12T13:32:40;3.15;;;0.32;;
66169;SDS011;52971;44.024;20.456;2022-07-12T13:35:07;1.45;;;0.20;;
66169;SDS011;52971;44.024;20.456;2022-07-12T13:37:35;1.08;;;0.17;;
66169;SDS011;52971;44.024;20.456;2022-07-12T13:40:02;1.42;;;0.10;;
66169;SDS011;52971;44.024;20.456;2022-07-12T13:42:41;1.25;;;0.20;;
66169;SDS011;52971;44.024;20.456;2022-07-12T13:45:12;1.17;;;0.15;;
66169;SDS011;52971;44.024;20.456;2022-07-12T13:47:39;1.38;;;0.32;;
66169;SDS011;52971;44.024;20.456;2022-07-12T13:50:05;3.58;;;0.10;;
66169;SDS011;52971;44.024;20.456;2022-07-12T13:52:32;1.88;;;0.30;;
66169;SDS011;52971;44.024;20.456;2022-07-12T13:54:57;0.80;;;0.13;;
66169;SDS011;52971;44.024;20.456;2022-07-12T13:57:23;1.45;;;0.10;;
66169;SDS011;52971;44.024;20.456;2022-07-12T13:59:49;0.93;;;0.10;;
66169;SDS011;52971;44.024;20.456;2022-07-12T14:02:15;3.20;;;0.75;;
66169;SDS011;52971;44.024;20.456;2022-07-12T14:04:41;1.13;;;0.28;;
66169;SDS011;52971;44.024;20.456;2022-07-12T14:07:06;2.40;;;0.30;;
66169;SDS011;52971;44.024;20.456;2022-07-12T14:09:32;2.85;;;0.40;;
66169;SDS011;52971;44.024;20.456;2022-07-12T14:11:57;1.10;;;0.13;;
66169;SDS011;52971;44.024;20.456;2022-07-12T14:14:23;1.27;;;0.10;;
66169;SDS011;52971;44.024;20.456;2022-07-12T14:17:07;3.30;;;0.45;;
66169;SDS011;52971;44.024;20.456;2022-07-12T14:19:33;2.15;;;0.20;;
66169;SDS011;52971;44.024;20.456;2022-07-12T14:21:58;1.25;;;0.20;;
66169;SDS011;52971;44.024;20.456;2022-07-12T14:24:24;1.55;;;0.20;;
66169;SDS011;52971;44.024;20.456;2022-07-12T14:26:49;0.50;;;0.10;;
66169;SDS011;52971;44.024;20.456;2022-07-12T14:29:15;2.92;;;0.15;;
66169;SDS011;52971;44.024;20.456;2022-07-12T14:31:40;2.33;;;0.13;;
66169;SDS011;52971;44.024;20.456;2022-07-12T14:34:06;2.72;;;0.20;;
66169;SDS011;52971;44.024;20.456;2022-07-12T14:36:31;1.40;;;0.20;;
66169;SDS011;52971;44.024;20.456;2022-07-12T14:38:57;2.00;;;0.10;;
66169;SDS011;52971;44.024;20.456;2022-07-12T14:41:22;1.30;;;0.30;;
66169;SDS011;52971;44.024;20.456;2022-07-12T14:43:48;1.65;;;0.30;;
66169;SDS011;52971;44.024;20.456;2022-07-12T14:46:14;2.15;;;0.20;;
66169;SDS011;52971;44.024;20.456;2022-07-12T14:48:42;1.00;;;0.20;;
66169;SDS011;52971;44.024;20.456;2022-07-12T14:51:08;1.17;;;0.10;;
66169;SDS011;52971;44.024;20.456;2022-07-12T14:53:34;1.60;;;0.30;;
66169;SDS011;52971;44.024;20.456;2022-07-12T14:56:00;1.30;;;0.20;;
66169;SDS011;52971;44.024;20.456;2022-07-12T14:58:25;1.38;;;0.20;;